sensor_id;sensor_type;location;lat;lon;timestamp;noise_LAeq;noise_LA_min;noise_LA_max;noise_LA01;noise_LA95
68599;Laerm;18038;50.166;18.908;2022-07-29T00:01:45;36.02;33.56;51.10;;
68599;Laerm;18038;50.166;18.908;2022-07-29T00:04:51;37.05;33.66;52.22;;
68599;Laerm;18038;50.166;18.908;2022-07-29T00:07:59;34.82;33.57;41.12;;
68599;Laerm;18038;50.166;18.908;2022-07-29T00:11:07;35.98;33.61;55.26;;
68599;Laerm;18038;50.166;18.908;2022-07-29T00:14:24;35.22;33.66;46.63;;
68599;Laerm;18038;50.166;18.908;2022-07-29T00:17:30;35.39;33.57;49.68;;
68599;Laerm;18038;50.166;18.908;2022-07-29T00:20:36;35.50;33.86;53.23;;
68599;Laerm;18038;50.166;18.908;2022-07-29T00:23:47;35.19;33.55;48.95;;
68599;Laerm;18038;50.166;18.908;2022-07-29T00:29:03;35.04;33.76;36.90;;
68599;Laerm;18038;50.166;18.908;2022-07-29T00:32:33;35.51;33.81;48.82;;
68599;Laerm;18038;50.166;18.908;2022-07-29T00:35:39;36.33;33.69;60.43;;
68599;Laerm;18038;50.166;18.908;2022-07-29T00:38:51;34.92;33.67;38.54;;
68599;Laerm;18038;50.166;18.908;2022-07-29T00:41:58;37.28;33.81;61.71;;
68599;Laerm;18038;50.166;18.908;2022-07-29T00:45:07;36.04;33.71;56.55;;
68599;Laerm;18038;50.166;18.908;2022-07-29T00:48:13;35.77;33.48;51.71;;
68599;Laerm;18038;50.166;18.908;2022-07-29T00:51:18;36.03;33.90;46.83;;
68599;Laerm;18038;50.166;18.908;2022-07-29T00:54:25;36.84;33.91;61.61;;
68599;Laerm;18038;50.166;18.908;2022-07-29T00:57:43;38.45;33.70;58.90;;
68599;Laerm;18038;50.166;18.908;2022-07-29T01:00:51;39.30;33.82;59.22;;
68599;Laerm;18038;50.166;18.908;2022-07-29T01:04:00;36.30;34.09;51.87;;
68599;Laerm;18038;50.166;18.908;2022-07-29T01:07:13;38.29;34.02;65.05;;
68599;Laerm;18038;50.166;18.908;2022-07-29T01:10:21;38.78;33.91;60.38;;
68599;Laerm;18038;50.166;18.908;2022-07-29T01:13:30;38.49;33.92;59.10;;
68599;Laerm;18038;50.166;18.908;2022-07-29T01:16:54;37.66;33.89;56.60;;
68599;Laerm;18038;50.166;18.908;2022-07-29T01:20:15;38.65;34.05;61.64;;
68599;Laerm;18038;50.166;18.908;2022-07-29T01:24:04;37.22;33.95;56.59;;
68599;Laerm;18038;50.166;18.908;2022-07-29T01:27:41;37.56;33.77;59.17;;
68599;Laerm;18038;50.166;18.908;2022-07-29T01:31:01;36.06;33.91;50.04;;
68599;Laerm;18038;50.166;18.908;2022-07-29T01:34:18;36.95;33.96;56.34;;
68599;Laerm;18038;50.166;18.908;2022-07-29T01:37:38;36.49;33.88;49.85;;
68599;Laerm;18038;50.166;18.908;2022-07-29T01:40:52;36.49;33.92;59.61;;
68599;Laerm;18038;50.166;18.908;2022-07-29T01:44:10;35.40;33.79;44.01;;
68599;Laerm;18038;50.166;18.908;2022-07-29T01:47:26;35.61;33.95;54.02;;
68599;Laerm;18038;50.166;18.908;2022-07-29T01:50:47;36.44;33.94;52.27;;
68599;Laerm;18038;50.166;18.908;2022-07-29T01:54:02;37.76;33.96;61.30;;
68599;Laerm;18038;50.166;18.908;2022-07-29T01:57:15;36.44;33.95;55.67;;
68599;Laerm;18038;50.166;18.908;2022-07-29T02:00:29;35.47;33.85;43.25;;
68599;Laerm;18038;50.166;18.908;2022-07-29T02:03:45;36.71;33.80;56.12;;
68599;Laerm;18038;50.166;18.908;2022-07-29T02:07:00;36.20;34.02;49.37;;
68599;Laerm;18038;50.166;18.908;2022-07-29T02:10:09;36.05;33.83;51.76;;
68599;Laerm;18038;50.166;18.908;2022-07-29T02:13:21;38.57;33.85;68.92;;
68599;Laerm;18038;50.166;18.908;2022-07-29T02:16:33;35.60;33.89;49.60;;
68599;Laerm;18038;50.166;18.908;2022-07-29T02:19:46;36.59;34.04;49.19;;
68599;Laerm;18038;50.166;18.908;2022-07-29T02:22:55;36.86;34.12;63.14;;
68599;Laerm;18038;50.166;18.908;2022-07-29T02:26:03;35.74;33.83;51.11;;
68599;Laerm;18038;50.166;18.908;2022-07-29T02:29:12;36.90;33.92;53.69;;
68599;Laerm;18038;50.166;18.908;2022-07-29T02:32:24;36.24;34.12;47.56;;
68599;Laerm;18038;50.166;18.908;2022-07-29T02:35:34;36.83;33.90;47.88;;
68599;Laerm;18038;50.166;18.908;2022-07-29T02:38:43;36.64;33.87;55.37;;
68599;Laerm;18038;50.166;18.908;2022-07-29T02:42:03;38.27;34.05;61.27;;
68599;Laerm;18038;50.166;18.908;2022-07-29T02:45:11;37.12;34.29;57.26;;
68599;Laerm;18038;50.166;18.908;2022-07-29T02:48:23;38.19;34.36;53.77;;
68599;Laerm;18038;50.166;18.908;2022-07-29T02:51:43;37.23;34.22;53.24;;
68599;Laerm;18038;50.166;18.908;2022-07-29T02:54:58;38.58;34.37;58.46;;
68599;Laerm;18038;50.166;18.908;2022-07-29T02:58:15;36.52;34.05;53.63;;
68599;Laerm;18038;50.166;18.908;2022-07-29T03:01:32;36.78;34.17;49.86;;
68599;Laerm;18038;50.166;18.908;2022-07-29T03:04:42;36.74;34.22;48.62;;
68599;Laerm;18038;50.166;18.908;2022-07-29T03:07:59;37.42;34.25;46.94;;
68599;Laerm;18038;50.166;18.908;2022-07-29T03:11:08;36.82;33.74;46.54;;
68599;Laerm;18038;50.166;18.908;2022-07-29T03:14:17;38.34;34.52;52.07;;
68599;Laerm;18038;50.166;18.908;2022-07-29T03:17:26;37.48;34.38;48.07;;
68599;Laerm;18038;50.166;18.908;2022-07-29T03:20:32;37.62;34.61;47.41;;
68599;Laerm;18038;50.166;18.908;2022-07-29T03:23:44;38.85;34.29;50.27;;
68599;Laerm;18038;50.166;18.908;2022-07-29T03:26:50;39.61;34.55;54.09;;
68599;Laerm;18038;50.166;18.908;2022-07-29T03:29:56;38.28;34.59;53.68;;
68599;Laerm;18038;50.166;18.908;2022-07-29T03:33:01;38.12;34.38;49.25;;
68599;Laerm;18038;50.166;18.908;2022-07-29T03:36:15;38.34;34.29;51.76;;
68599;Laerm;18038;50.166;18.908;2022-07-29T03:39:36;39.43;34.79;54.72;;
68599;Laerm;18038;50.166;18.908;2022-07-29T03:42:46;38.13;34.47;55.32;;
68599;Laerm;18038;50.166;18.908;2022-07-29T03:45:57;37.63;34.44;45.87;;
68599;Laerm;18038;50.166;18.908;2022-07-29T03:49:05;38.63;34.77;48.48;;
68599;Laerm;18038;50.166;18.908;2022-07-29T03:52:16;37.97;34.44;50.52;;
68599;Laerm;18038;50.166;18.908;2022-07-29T03:55:28;38.76;34.68;50.83;;
68599;Laerm;18038;50.166;18.908;2022-07-29T03:58:39;37.96;34.57;46.34;;
68599;Laerm;18038;50.166;18.908;2022-07-29T04:01:47;39.00;34.51;51.80;;
68599;Laerm;18038;50.166;18.908;2022-07-29T04:04:56;38.80;34.72;48.03;;
68599;Laerm;18038;50.166;18.908;2022-07-29T04:08:01;38.24;34.62;48.99;;
68599;Laerm;18038;50.166;18.908;2022-07-29T04:11:10;38.60;34.71;50.15;;
68599;Laerm;18038;50.166;18.908;2022-07-29T04:14:15;39.58;35.42;51.56;;
68599;Laerm;18038;50.166;18.908;2022-07-29T04:17:21;39.51;34.76;52.61;;
68599;Laerm;18038;50.166;18.908;2022-07-29T04:20:27;40.71;34.72;58.49;;
68599;Laerm;18038;50.166;18.908;2022-07-29T04:23:32;38.73;34.79;51.78;;
68599;Laerm;18038;50.166;18.908;2022-07-29T04:26:56;40.86;34.94;60.28;;
68599;Laerm;18038;50.166;18.908;2022-07-29T04:30:04;37.59;34.56;48.24;;
68599;Laerm;18038;50.166;18.908;2022-07-29T04:33:10;38.83;34.64;54.88;;
68599;Laerm;18038;50.166;18.908;2022-07-29T04:36:16;38.72;34.75;55.89;;
68599;Laerm;18038;50.166;18.908;2022-07-29T04:39:31;39.21;34.71;51.70;;
68599;Laerm;18038;50.166;18.908;2022-07-29T04:42:39;39.26;34.70;56.80;;
68599;Laerm;18038;50.166;18.908;2022-07-29T04:45:49;39.59;34.75;53.54;;
68599;Laerm;18038;50.166;18.908;2022-07-29T04:48:55;39.19;34.56;48.70;;
68599;Laerm;18038;50.166;18.908;2022-07-29T04:52:00;39.44;34.31;57.55;;
68599;Laerm;18038;50.166;18.908;2022-07-29T04:55:07;40.04;34.57;55.18;;
68599;Laerm;18038;50.166;18.908;2022-07-29T04:58:16;39.92;34.33;51.80;;
68599;Laerm;18038;50.166;18.908;2022-07-29T05:01:22;38.52;34.17;53.71;;
68599;Laerm;18038;50.166;18.908;2022-07-29T05:04:27;39.54;34.79;56.52;;
68599;Laerm;18038;50.166;18.908;2022-07-29T05:07:33;38.99;33.98;54.15;;
68599;Laerm;18038;50.166;18.908;2022-07-29T05:10:39;39.97;34.08;51.97;;
68599;Laerm;18038;50.166;18.908;2022-07-29T05:13:47;38.66;34.23;52.20;;
68599;Laerm;18038;50.166;18.908;2022-07-29T05:16:52;38.59;34.33;54.54;;
68599;Laerm;18038;50.166;18.908;2022-07-29T05:19:59;39.06;34.02;46.44;;
68599;Laerm;18038;50.166;18.908;2022-07-29T05:23:06;38.85;34.42;49.95;;
68599;Laerm;18038;50.166;18.908;2022-07-29T05:26:15;41.25;34.19;55.55;;
68599;Laerm;18038;50.166;18.908;2022-07-29T05:29:23;39.20;34.16;53.85;;
68599;Laerm;18038;50.166;18.908;2022-07-29T05:32:46;39.74;34.62;52.30;;
68599;Laerm;18038;50.166;18.908;2022-07-29T05:35:52;39.87;34.52;55.25;;
68599;Laerm;18038;50.166;18.908;2022-07-29T05:39:02;42.19;34.87;61.29;;
68599;Laerm;18038;50.166;18.908;2022-07-29T05:42:08;43.47;34.26;68.11;;
68599;Laerm;18038;50.166;18.908;2022-07-29T05:45:17;43.07;36.10;61.67;;
68599;Laerm;18038;50.166;18.908;2022-07-29T05:48:23;41.34;34.96;57.88;;
68599;Laerm;18038;50.166;18.908;2022-07-29T05:51:29;43.66;35.45;65.66;;
68599;Laerm;18038;50.166;18.908;2022-07-29T05:54:35;42.43;34.44;65.87;;
68599;Laerm;18038;50.166;18.908;2022-07-29T05:57:41;40.91;34.19;65.21;;
68599;Laerm;18038;50.166;18.908;2022-07-29T06:00:51;44.19;34.79;66.11;;
68599;Laerm;18038;50.166;18.908;2022-07-29T06:03:58;40.21;34.27;62.80;;
68599;Laerm;18038;50.166;18.908;2022-07-29T06:07:04;43.86;34.37;66.46;;
68599;Laerm;18038;50.166;18.908;2022-07-29T06:10:10;46.57;34.39;70.51;;
68599;Laerm;18038;50.166;18.908;2022-07-29T06:13:16;46.81;34.24;69.62;;
68599;Laerm;18038;50.166;18.908;2022-07-29T06:16:25;43.97;35.47;62.80;;
68599;Laerm;18038;50.166;18.908;2022-07-29T06:19:34;43.77;36.17;65.01;;
68599;Laerm;18038;50.166;18.908;2022-07-29T06:22:40;45.58;34.80;66.69;;
68599;Laerm;18038;50.166;18.908;2022-07-29T06:25:46;46.33;34.75;69.50;;
68599;Laerm;18038;50.166;18.908;2022-07-29T06:28:56;45.39;34.43;71.08;;
68599;Laerm;18038;50.166;18.908;2022-07-29T06:32:05;42.83;34.32;65.71;;
68599;Laerm;18038;50.166;18.908;2022-07-29T06:35:12;42.92;34.76;62.86;;
68599;Laerm;18038;50.166;18.908;2022-07-29T06:38:37;41.61;34.54;62.05;;
68599;Laerm;18038;50.166;18.908;2022-07-29T06:41:53;47.61;35.24;70.54;;
68599;Laerm;18038;50.166;18.908;2022-07-29T06:44:59;42.50;34.24;59.74;;
68599;Laerm;18038;50.166;18.908;2022-07-29T06:48:13;43.01;34.25;62.03;;
68599;Laerm;18038;50.166;18.908;2022-07-29T06:51:20;48.58;34.25;73.01;;
68599;Laerm;18038;50.166;18.908;2022-07-29T06:54:27;40.55;34.32;58.36;;
68599;Laerm;18038;50.166;18.908;2022-07-29T06:57:32;42.71;34.56;64.95;;
68599;Laerm;18038;50.166;18.908;2022-07-29T07:00:38;43.95;34.23;66.36;;
68599;Laerm;18038;50.166;18.908;2022-07-29T07:03:47;42.43;34.31;66.46;;
68599;Laerm;18038;50.166;18.908;2022-07-29T07:06:53;41.39;34.46;61.27;;
68599;Laerm;18038;50.166;18.908;2022-07-29T07:09:59;43.05;34.36;63.27;;
68599;Laerm;18038;50.166;18.908;2022-07-29T07:13:06;42.81;34.37;62.82;;
68599;Laerm;18038;50.166;18.908;2022-07-29T07:16:12;39.43;34.32;57.60;;
68599;Laerm;18038;50.166;18.908;2022-07-29T07:19:21;38.21;33.96;54.88;;
68599;Laerm;18038;50.166;18.908;2022-07-29T07:22:27;43.51;34.58;69.23;;
68599;Laerm;18038;50.166;18.908;2022-07-29T07:25:40;42.01;34.18;64.09;;
68599;Laerm;18038;50.166;18.908;2022-07-29T07:28:46;44.32;34.56;66.11;;
68599;Laerm;18038;50.166;18.908;2022-07-29T07:31:53;43.74;34.60;67.76;;
68599;Laerm;18038;50.166;18.908;2022-07-29T07:35:12;44.17;34.43;70.06;;
68599;Laerm;18038;50.166;18.908;2022-07-29T07:38:18;43.60;34.50;63.69;;
68599;Laerm;18038;50.166;18.908;2022-07-29T07:41:26;39.63;34.25;53.99;;
68599;Laerm;18038;50.166;18.908;2022-07-29T07:44:42;40.15;34.76;54.90;;
68599;Laerm;18038;50.166;18.908;2022-07-29T07:48:12;41.43;34.51;61.51;;
68599;Laerm;18038;50.166;18.908;2022-07-29T07:51:28;41.80;33.94;62.12;;
68599;Laerm;18038;50.166;18.908;2022-07-29T07:54:45;41.21;34.64;64.20;;
68599;Laerm;18038;50.166;18.908;2022-07-29T07:57:52;45.99;34.31;65.60;;
68599;Laerm;18038;50.166;18.908;2022-07-29T08:00:58;40.05;34.46;55.79;;
68599;Laerm;18038;50.166;18.908;2022-07-29T08:04:36;38.83;34.60;56.67;;
68599;Laerm;18038;50.166;18.908;2022-07-29T08:07:47;42.06;34.22;65.00;;
68599;Laerm;18038;50.166;18.908;2022-07-29T08:10:56;40.32;34.06;60.91;;
68599;Laerm;18038;50.166;18.908;2022-07-29T08:14:10;42.56;34.36;65.87;;
68599;Laerm;18038;50.166;18.908;2022-07-29T08:17:19;39.88;34.41;58.43;;
68599;Laerm;18038;50.166;18.908;2022-07-29T08:20:29;46.97;34.36;71.30;;
68599;Laerm;18038;50.166;18.908;2022-07-29T08:23:39;41.22;34.26;59.57;;
68599;Laerm;18038;50.166;18.908;2022-07-29T08:26:54;45.89;33.97;67.58;;
68599;Laerm;18038;50.166;18.908;2022-07-29T08:30:10;41.24;34.23;60.07;;
68599;Laerm;18038;50.166;18.908;2022-07-29T08:33:16;46.70;34.26;66.62;;
68599;Laerm;18038;50.166;18.908;2022-07-29T08:36:22;44.40;34.31;68.97;;
68599;Laerm;18038;50.166;18.908;2022-07-29T08:39:31;40.99;34.31;63.63;;
68599;Laerm;18038;50.166;18.908;2022-07-29T08:42:37;41.01;34.44;62.63;;
68599;Laerm;18038;50.166;18.908;2022-07-29T08:45:46;42.85;34.30;62.21;;
68599;Laerm;18038;50.166;18.908;2022-07-29T08:48:57;46.94;34.09;70.20;;
68599;Laerm;18038;50.166;18.908;2022-07-29T08:52:11;42.21;34.29;62.42;;
68599;Laerm;18038;50.166;18.908;2022-07-29T08:55:20;43.62;35.01;66.42;;
68599;Laerm;18038;50.166;18.908;2022-07-29T08:58:32;45.71;34.36;69.56;;
68599;Laerm;18038;50.166;18.908;2022-07-29T09:01:43;42.72;34.75;63.00;;
68599;Laerm;18038;50.166;18.908;2022-07-29T09:04:51;44.90;34.43;66.97;;
68599;Laerm;18038;50.166;18.908;2022-07-29T09:08:04;39.21;34.03;54.49;;
68599;Laerm;18038;50.166;18.908;2022-07-29T09:11:27;40.20;34.53;64.09;;
68599;Laerm;18038;50.166;18.908;2022-07-29T09:14:33;41.05;34.11;61.25;;
68599;Laerm;18038;50.166;18.908;2022-07-29T09:17:44;39.10;33.98;53.98;;
68599;Laerm;18038;50.166;18.908;2022-07-29T09:20:52;38.85;34.30;53.32;;
68599;Laerm;18038;50.166;18.908;2022-07-29T09:24:14;41.61;34.45;60.73;;
68599;Laerm;18038;50.166;18.908;2022-07-29T09:27:25;39.69;34.26;60.90;;
68599;Laerm;18038;50.166;18.908;2022-07-29T09:30:32;38.60;34.12;56.74;;
68599;Laerm;18038;50.166;18.908;2022-07-29T09:33:38;42.82;34.61;72.69;;
68599;Laerm;18038;50.166;18.908;2022-07-29T09:36:50;45.36;34.36;72.68;;
68599;Laerm;18038;50.166;18.908;2022-07-29T09:39:57;42.30;34.27;65.56;;
68599;Laerm;18038;50.166;18.908;2022-07-29T09:43:13;43.07;34.06;64.04;;
68599;Laerm;18038;50.166;18.908;2022-07-29T09:46:20;45.63;34.25;70.10;;
68599;Laerm;18038;50.166;18.908;2022-07-29T09:49:26;39.17;34.01;57.04;;
68599;Laerm;18038;50.166;18.908;2022-07-29T09:52:45;38.43;34.27;58.01;;
68599;Laerm;18038;50.166;18.908;2022-07-29T09:55:52;39.97;34.06;60.38;;
68599;Laerm;18038;50.166;18.908;2022-07-29T09:59:09;44.66;34.61;63.21;;
68599;Laerm;18038;50.166;18.908;2022-07-29T10:02:15;39.44;34.48;49.83;;
68599;Laerm;18038;50.166;18.908;2022-07-29T10:05:27;45.53;34.85;65.84;;
68599;Laerm;18038;50.166;18.908;2022-07-29T10:08:39;43.53;34.26;70.57;;
68599;Laerm;18038;50.166;18.908;2022-07-29T10:12:04;39.95;33.79;58.62;;
68599;Laerm;18038;50.166;18.908;2022-07-29T10:15:15;39.07;34.04;58.05;;
68599;Laerm;18038;50.166;18.908;2022-07-29T10:18:21;44.53;34.08;71.77;;
68599;Laerm;18038;50.166;18.908;2022-07-29T10:21:27;41.28;33.88;65.78;;
68599;Laerm;18038;50.166;18.908;2022-07-29T10:24:39;40.97;35.18;59.97;;
68599;Laerm;18038;50.166;18.908;2022-07-29T10:27:52;43.44;35.04;67.59;;
68599;Laerm;18038;50.166;18.908;2022-07-29T10:31:22;46.10;35.67;68.41;;
68599;Laerm;18038;50.166;18.908;2022-07-29T10:35:06;41.02;35.30;57.09;;
68599;Laerm;18038;50.166;18.908;2022-07-29T10:38:44;41.49;35.91;60.75;;
68599;Laerm;18038;50.166;18.908;2022-07-29T10:42:08;45.09;34.20;66.29;;
68599;Laerm;18038;50.166;18.908;2022-07-29T10:45:22;41.64;34.37;63.94;;
68599;Laerm;18038;50.166;18.908;2022-07-29T10:48:32;43.04;34.21;64.91;;
68599;Laerm;18038;50.166;18.908;2022-07-29T10:51:59;40.41;34.27;55.67;;
68599;Laerm;18038;50.166;18.908;2022-07-29T10:55:08;42.38;34.26;65.10;;
68599;Laerm;18038;50.166;18.908;2022-07-29T10:58:17;42.31;34.30;63.63;;
68599;Laerm;18038;50.166;18.908;2022-07-29T11:01:30;44.32;33.98;63.44;;
68599;Laerm;18038;50.166;18.908;2022-07-29T11:05:04;45.05;34.07;70.43;;
68599;Laerm;18038;50.166;18.908;2022-07-29T11:08:24;40.18;33.95;57.65;;
68599;Laerm;18038;50.166;18.908;2022-07-29T11:11:32;41.78;34.20;63.34;;
68599;Laerm;18038;50.166;18.908;2022-07-29T11:14:58;38.80;34.03;53.76;;
68599;Laerm;18038;50.166;18.908;2022-07-29T11:18:09;47.35;34.06;67.90;;
68599;Laerm;18038;50.166;18.908;2022-07-29T11:21:40;42.36;34.16;68.16;;
68599;Laerm;18038;50.166;18.908;2022-07-29T11:25:14;39.19;34.07;55.52;;
68599;Laerm;18038;50.166;18.908;2022-07-29T11:28:54;43.46;34.16;65.23;;
68599;Laerm;18038;50.166;18.908;2022-07-29T11:32:11;42.65;34.23;59.62;;
68599;Laerm;18038;50.166;18.908;2022-07-29T11:35:24;38.35;33.77;56.07;;
68599;Laerm;18038;50.166;18.908;2022-07-29T11:38:43;41.87;34.02;60.12;;
68599;Laerm;18038;50.166;18.908;2022-07-29T11:41:49;42.03;34.29;57.65;;
68599;Laerm;18038;50.166;18.908;2022-07-29T11:44:59;44.33;34.45;71.43;;
68599;Laerm;18038;50.166;18.908;2022-07-29T11:48:29;38.70;34.28;59.27;;
68599;Laerm;18038;50.166;18.908;2022-07-29T11:51:38;41.60;34.35;58.83;;
68599;Laerm;18038;50.166;18.908;2022-07-29T11:55:01;40.90;34.30;61.97;;
68599;Laerm;18038;50.166;18.908;2022-07-29T11:58:11;40.87;33.91;56.64;;
68599;Laerm;18038;50.166;18.908;2022-07-29T12:01:26;38.65;34.36;52.30;;
68599;Laerm;18038;50.166;18.908;2022-07-29T12:04:48;40.25;33.91;52.87;;
68599;Laerm;18038;50.166;18.908;2022-07-29T12:07:54;39.40;34.40;50.60;;
68599;Laerm;18038;50.166;18.908;2022-07-29T12:11:03;41.80;34.34;58.77;;
68599;Laerm;18038;50.166;18.908;2022-07-29T12:14:25;39.19;34.09;51.73;;
68599;Laerm;18038;50.166;18.908;2022-07-29T12:17:36;39.14;34.43;49.13;;
68599;Laerm;18038;50.166;18.908;2022-07-29T12:20:44;40.26;34.30;58.92;;
68599;Laerm;18038;50.166;18.908;2022-07-29T12:23:55;40.03;34.11;55.01;;
68599;Laerm;18038;50.166;18.908;2022-07-29T12:27:17;38.96;33.89;50.62;;
68599;Laerm;18038;50.166;18.908;2022-07-29T12:30:40;39.04;34.12;55.92;;
68599;Laerm;18038;50.166;18.908;2022-07-29T12:33:53;39.04;34.22;46.51;;
68599;Laerm;18038;50.166;18.908;2022-07-29T12:37:01;38.80;34.30;49.20;;
68599;Laerm;18038;50.166;18.908;2022-07-29T12:40:11;38.13;33.95;49.76;;
68599;Laerm;18038;50.166;18.908;2022-07-29T12:43:24;39.43;33.95;53.34;;
68599;Laerm;18038;50.166;18.908;2022-07-29T12:46:30;38.57;33.99;51.73;;
68599;Laerm;18038;50.166;18.908;2022-07-29T12:49:36;39.37;34.13;57.75;;
68599;Laerm;18038;50.166;18.908;2022-07-29T12:52:43;41.20;33.45;60.86;;
68599;Laerm;18038;50.166;18.908;2022-07-29T12:55:51;37.93;33.84;52.62;;
68599;Laerm;18038;50.166;18.908;2022-07-29T12:59:11;38.94;34.11;48.26;;
68599;Laerm;18038;50.166;18.908;2022-07-29T13:02:21;40.72;34.40;52.26;;
68599;Laerm;18038;50.166;18.908;2022-07-29T13:05:40;41.43;34.58;50.82;;
68599;Laerm;18038;50.166;18.908;2022-07-29T13:09:01;39.85;34.04;52.68;;
68599;Laerm;18038;50.166;18.908;2022-07-29T13:12:10;39.24;34.40;54.20;;
68599;Laerm;18038;50.166;18.908;2022-07-29T13:15:19;40.19;34.47;50.50;;
68599;Laerm;18038;50.166;18.908;2022-07-29T13:18:29;40.08;34.21;55.11;;
68599;Laerm;18038;50.166;18.908;2022-07-29T13:21:37;41.22;34.05;59.25;;
68599;Laerm;18038;50.166;18.908;2022-07-29T13:24:48;42.40;34.28;63.43;;
68599;Laerm;18038;50.166;18.908;2022-07-29T13:27:57;39.08;34.13;48.51;;
68599;Laerm;18038;50.166;18.908;2022-07-29T13:31:06;39.95;34.54;60.85;;
68599;Laerm;18038;50.166;18.908;2022-07-29T13:34:11;40.15;33.88;59.52;;
68599;Laerm;18038;50.166;18.908;2022-07-29T13:37:18;40.53;34.27;58.24;;
68599;Laerm;18038;50.166;18.908;2022-07-29T13:40:24;37.91;33.89;44.64;;
68599;Laerm;18038;50.166;18.908;2022-07-29T13:43:31;39.12;34.46;52.22;;
68599;Laerm;18038;50.166;18.908;2022-07-29T13:46:39;40.61;34.40;58.86;;
68599;Laerm;18038;50.166;18.908;2022-07-29T13:49:45;38.78;34.04;48.28;;
68599;Laerm;18038;50.166;18.908;2022-07-29T13:52:56;39.59;34.08;63.53;;
68599;Laerm;18038;50.166;18.908;2022-07-29T13:56:06;40.15;34.60;57.33;;
68599;Laerm;18038;50.166;18.908;2022-07-29T13:59:12;40.19;34.48;56.22;;
68599;Laerm;18038;50.166;18.908;2022-07-29T14:02:25;41.03;34.26;67.37;;
68599;Laerm;18038;50.166;18.908;2022-07-29T14:05:31;43.12;34.05;61.74;;
68599;Laerm;18038;50.166;18.908;2022-07-29T14:08:37;41.35;34.04;63.92;;
68599;Laerm;18038;50.166;18.908;2022-07-29T14:11:43;42.59;34.23;64.97;;
68599;Laerm;18038;50.166;18.908;2022-07-29T14:14:51;41.02;34.14;62.28;;
68599;Laerm;18038;50.166;18.908;2022-07-29T14:18:01;40.68;34.14;61.76;;
68599;Laerm;18038;50.166;18.908;2022-07-29T14:21:16;41.38;34.16;67.01;;
68599;Laerm;18038;50.166;18.908;2022-07-29T14:24:29;47.04;34.30;65.41;;
68599;Laerm;18038;50.166;18.908;2022-07-29T14:27:41;45.08;34.58;65.09;;
68599;Laerm;18038;50.166;18.908;2022-07-29T14:30:47;43.61;34.19;62.84;;
68599;Laerm;18038;50.166;18.908;2022-07-29T14:33:55;44.47;34.06;63.93;;
68599;Laerm;18038;50.166;18.908;2022-07-29T14:37:08;45.86;34.06;67.88;;
68599;Laerm;18038;50.166;18.908;2022-07-29T14:40:17;40.71;34.09;58.66;;
68599;Laerm;18038;50.166;18.908;2022-07-29T14:43:23;44.67;34.30;63.03;;
68599;Laerm;18038;50.166;18.908;2022-07-29T14:46:28;41.13;34.21;59.98;;
68599;Laerm;18038;50.166;18.908;2022-07-29T14:49:37;44.62;34.63;66.68;;
68599;Laerm;18038;50.166;18.908;2022-07-29T14:52:43;44.72;34.24;66.09;;
68599;Laerm;18038;50.166;18.908;2022-07-29T14:55:50;46.33;34.27;70.11;;
68599;Laerm;18038;50.166;18.908;2022-07-29T14:58:56;44.99;34.19;65.06;;
68599;Laerm;18038;50.166;18.908;2022-07-29T15:02:06;42.99;34.69;64.86;;
68599;Laerm;18038;50.166;18.908;2022-07-29T15:05:26;41.43;34.22;63.82;;
68599;Laerm;18038;50.166;18.908;2022-07-29T15:08:34;45.09;34.14;66.28;;
68599;Laerm;18038;50.166;18.908;2022-07-29T15:11:39;42.08;34.21;59.71;;
68599;Laerm;18038;50.166;18.908;2022-07-29T15:14:45;40.52;34.18;61.54;;
68599;Laerm;18038;50.166;18.908;2022-07-29T15:17:51;40.97;34.07;63.42;;
68599;Laerm;18038;50.166;18.908;2022-07-29T15:20:59;39.78;34.10;55.95;;
68599;Laerm;18038;50.166;18.908;2022-07-29T15:24:05;37.56;33.98;49.44;;
68599;Laerm;18038;50.166;18.908;2022-07-29T15:27:12;38.42;33.84;49.92;;
68599;Laerm;18038;50.166;18.908;2022-07-29T15:30:30;39.73;34.27;57.76;;
68599;Laerm;18038;50.166;18.908;2022-07-29T15:33:36;41.02;34.40;59.54;;
68599;Laerm;18038;50.166;18.908;2022-07-29T15:36:51;38.64;34.25;54.64;;
68599;Laerm;18038;50.166;18.908;2022-07-29T15:40:02;38.76;34.15;49.03;;
68599;Laerm;18038;50.166;18.908;2022-07-29T15:43:12;39.39;34.19;59.12;;
68599;Laerm;18038;50.166;18.908;2022-07-29T15:46:19;38.70;34.30;49.86;;
68599;Laerm;18038;50.166;18.908;2022-07-29T15:49:41;38.41;34.09;54.36;;
68599;Laerm;18038;50.166;18.908;2022-07-29T15:52:52;40.51;33.66;54.66;;
68599;Laerm;18038;50.166;18.908;2022-07-29T15:55:58;37.45;33.97;46.35;;
68599;Laerm;18038;50.166;18.908;2022-07-29T15:59:08;39.74;34.17;54.61;;
68599;Laerm;18038;50.166;18.908;2022-07-29T16:02:24;37.45;33.78;51.46;;
68599;Laerm;18038;50.166;18.908;2022-07-29T16:05:30;38.05;33.86;54.76;;
68599;Laerm;18038;50.166;18.908;2022-07-29T16:08:38;38.00;33.94;55.98;;
68599;Laerm;18038;50.166;18.908;2022-07-29T16:11:45;41.49;34.32;60.73;;
68599;Laerm;18038;50.166;18.908;2022-07-29T16:14:52;47.28;34.15;69.26;;
68599;Laerm;18038;50.166;18.908;2022-07-29T16:17:58;59.91;35.33;81.17;;
68599;Laerm;18038;50.166;18.908;2022-07-29T16:21:04;57.16;34.84;76.95;;
68599;Laerm;18038;50.166;18.908;2022-07-29T16:24:12;52.25;34.72;77.06;;
68599;Laerm;18038;50.166;18.908;2022-07-29T16:27:20;39.83;34.19;66.65;;
68599;Laerm;18038;50.166;18.908;2022-07-29T16:30:39;44.70;34.03;64.78;;
68599;Laerm;18038;50.166;18.908;2022-07-29T16:33:45;45.30;34.66;67.39;;
68599;Laerm;18038;50.166;18.908;2022-07-29T16:36:57;45.35;34.68;63.17;;
68599;Laerm;18038;50.166;18.908;2022-07-29T16:40:08;45.80;34.85;63.40;;
68599;Laerm;18038;50.166;18.908;2022-07-29T16:43:17;42.83;34.97;64.77;;
68599;Laerm;18038;50.166;18.908;2022-07-29T16:46:23;48.17;35.15;71.68;;
68599;Laerm;18038;50.166;18.908;2022-07-29T16:49:29;47.48;35.20;68.41;;
68599;Laerm;18038;50.166;18.908;2022-07-29T16:52:44;43.13;34.93;66.15;;
68599;Laerm;18038;50.166;18.908;2022-07-29T16:55:54;38.81;34.76;60.81;;
68599;Laerm;18038;50.166;18.908;2022-07-29T16:59:05;40.59;34.77;64.11;;
68599;Laerm;18038;50.166;18.908;2022-07-29T17:02:28;41.28;34.65;67.23;;
68599;Laerm;18038;50.166;18.908;2022-07-29T17:05:35;37.63;34.29;54.45;;
68599;Laerm;18038;50.166;18.908;2022-07-29T17:08:56;38.13;34.48;55.59;;
68599;Laerm;18038;50.166;18.908;2022-07-29T17:12:11;39.34;34.57;56.43;;
68599;Laerm;18038;50.166;18.908;2022-07-29T17:15:20;37.84;34.48;50.94;;
68599;Laerm;18038;50.166;18.908;2022-07-29T17:18:29;37.03;34.38;51.43;;
68599;Laerm;18038;50.166;18.908;2022-07-29T17:21:46;37.78;34.30;61.04;;
68599;Laerm;18038;50.166;18.908;2022-07-29T17:24:54;38.25;34.34;49.61;;
68599;Laerm;18038;50.166;18.908;2022-07-29T17:28:11;40.03;34.43;57.15;;
68599;Laerm;18038;50.166;18.908;2022-07-29T17:31:16;41.27;35.34;50.66;;
68599;Laerm;18038;50.166;18.908;2022-07-29T17:34:22;37.71;34.24;58.09;;
68599;Laerm;18038;50.166;18.908;2022-07-29T17:37:28;37.35;33.87;51.84;;